sensor_id;sensor_type;location;lat;lon;timestamp;P1;durP1;ratioP1;P2;durP2;ratioP2
34373;SDS011;20637;55.770;37.592;2024-01-11T00:00:44;6.55;;;3.55;;
34373;SDS011;20637;55.770;37.592;2024-01-11T00:03:10;11.20;;;3.80;;
34373;SDS011;20637;55.770;37.592;2024-01-11T00:05:36;7.65;;;2.70;;
34373;SDS011;20637;55.770;37.592;2024-01-11T00:08:02;8.98;;;3.78;;
34373;SDS011;20637;55.770;37.592;2024-01-11T00:10:28;8.45;;;2.95;;
34373;SDS011;20637;55.770;37.592;2024-01-11T00:12:54;6.38;;;3.20;;
34373;SDS011;20637;55.770;37.592;2024-01-11T00:15:19;7.47;;;3.78;;
34373;SDS011;20637;55.770;37.592;2024-01-11T00:17:45;7.85;;;3.55;;
34373;SDS011;20637;55.770;37.592;2024-01-11T00:20:10;8.57;;;3.78;;
34373;SDS011;20637;55.770;37.592;2024-01-11T00:22:36;7.65;;;2.75;;
34373;SDS011;20637;55.770;37.592;2024-01-11T00:25:02;11.27;;;5.05;;
34373;SDS011;20637;55.770;37.592;2024-01-11T00:27:29;6.80;;;2.65;;
34373;SDS011;20637;55.770;37.592;2024-01-11T00:29:55;4.90;;;2.40;;
34373;SDS011;20637;55.770;37.592;2024-01-11T00:32:20;3.95;;;2.28;;
34373;SDS011;20637;55.770;37.592;2024-01-11T00:34:46;7.05;;;2.88;;
34373;SDS011;20637;55.770;37.592;2024-01-11T00:37:12;10.95;;;5.32;;
34373;SDS011;20637;55.770;37.592;2024-01-11T00:39:38;9.05;;;4.80;;
34373;SDS011;20637;55.770;37.592;2024-01-11T00:42:04;5.63;;;3.08;;
34373;SDS011;20637;55.770;37.592;2024-01-11T00:44:29;6.15;;;2.95;;
34373;SDS011;20637;55.770;37.592;2024-01-11T00:46:55;3.95;;;2.50;;
34373;SDS011;20637;55.770;37.592;2024-01-11T00:49:21;6.70;;;2.97;;
34373;SDS011;20637;55.770;37.592;2024-01-11T00:51:46;4.25;;;2.03;;
34373;SDS011;20637;55.770;37.592;2024-01-11T00:54:12;8.60;;;3.58;;
34373;SDS011;20637;55.770;37.592;2024-01-11T00:56:38;7.70;;;3.13;;
34373;SDS011;20637;55.770;37.592;2024-01-11T00:59:04;8.88;;;3.15;;
34373;SDS011;20637;55.770;37.592;2024-01-11T01:01:29;10.77;;;2.97;;
34373;SDS011;20637;55.770;37.592;2024-01-11T01:03:55;5.95;;;3.13;;
34373;SDS011;20637;55.770;37.592;2024-01-11T01:06:21;8.68;;;2.67;;
34373;SDS011;20637;55.770;37.592;2024-01-11T01:08:46;5.57;;;2.83;;
34373;SDS011;20637;55.770;37.592;2024-01-11T01:11:12;7.95;;;3.20;;
34373;SDS011;20637;55.770;37.592;2024-01-11T01:13:38;5.38;;;2.72;;
34373;SDS011;20637;55.770;37.592;2024-01-11T01:16:03;4.80;;;2.85;;
34373;SDS011;20637;55.770;37.592;2024-01-11T01:18:29;7.00;;;2.35;;
34373;SDS011;20637;55.770;37.592;2024-01-11T01:20:55;5.43;;;2.80;;
34373;SDS011;20637;55.770;37.592;2024-01-11T01:23:21;3.25;;;1.85;;
34373;SDS011;20637;55.770;37.592;2024-01-11T01:25:46;4.28;;;2.65;;
34373;SDS011;20637;55.770;37.592;2024-01-11T01:28:12;5.95;;;3.22;;
34373;SDS011;20637;55.770;37.592;2024-01-11T01:30:38;3.75;;;1.85;;
34373;SDS011;20637;55.770;37.592;2024-01-11T01:33:03;4.47;;;2.67;;
34373;SDS011;20637;55.770;37.592;2024-01-11T01:35:29;4.07;;;2.10;;
34373;SDS011;20637;55.770;37.592;2024-01-11T01:37:55;4.32;;;2.30;;
34373;SDS011;20637;55.770;37.592;2024-01-11T01:40:21;2.67;;;2.15;;
34373;SDS011;20637;55.770;37.592;2024-01-11T01:42:47;5.53;;;3.13;;
34373;SDS011;20637;55.770;37.592;2024-01-11T01:45:14;4.07;;;2.20;;
34373;SDS011;20637;55.770;37.592;2024-01-11T01:47:41;3.03;;;1.90;;
34373;SDS011;20637;55.770;37.592;2024-01-11T01:50:09;3.75;;;2.03;;
34373;SDS011;20637;55.770;37.592;2024-01-11T01:52:36;3.50;;;2.38;;
34373;SDS011;20637;55.770;37.592;2024-01-11T01:55:03;3.20;;;1.88;;
34373;SDS011;20637;55.770;37.592;2024-01-11T01:57:30;3.92;;;2.03;;
34373;SDS011;20637;55.770;37.592;2024-01-11T01:59:58;4.13;;;2.10;;
34373;SDS011;20637;55.770;37.592;2024-01-11T02:02:24;2.70;;;1.83;;
34373;SDS011;20637;55.770;37.592;2024-01-11T02:04:50;2.90;;;1.92;;
34373;SDS011;20637;55.770;37.592;2024-01-11T02:07:16;3.38;;;1.63;;
34373;SDS011;20637;55.770;37.592;2024-01-11T02:09:43;3.20;;;1.40;;
34373;SDS011;20637;55.770;37.592;2024-01-11T02:12:10;2.50;;;1.50;;
34373;SDS011;20637;55.770;37.592;2024-01-11T02:14:38;2.75;;;1.60;;
34373;SDS011;20637;55.770;37.592;2024-01-11T02:17:04;1.80;;;1.13;;
34373;SDS011;20637;55.770;37.592;2024-01-11T02:19:49;2.38;;;1.40;;
34373;SDS011;20637;55.770;37.592;2024-01-11T02:22:26;2.78;;;1.30;;
34373;SDS011;20637;55.770;37.592;2024-01-11T02:24:55;1.85;;;1.35;;
34373;SDS011;20637;55.770;37.592;2024-01-11T02:27:22;2.15;;;1.13;;
34373;SDS011;20637;55.770;37.592;2024-01-11T02:29:48;2.33;;;1.42;;
34373;SDS011;20637;55.770;37.592;2024-01-11T02:32:14;3.42;;;1.80;;
34373;SDS011;20637;55.770;37.592;2024-01-11T02:34:39;2.33;;;1.63;;
34373;SDS011;20637;55.770;37.592;2024-01-11T02:37:05;3.60;;;2.00;;
34373;SDS011;20637;55.770;37.592;2024-01-11T02:39:31;2.67;;;1.80;;
34373;SDS011;20637;55.770;37.592;2024-01-11T02:41:58;2.72;;;1.42;;
34373;SDS011;20637;55.770;37.592;2024-01-11T02:44:24;2.25;;;1.60;;
34373;SDS011;20637;55.770;37.592;2024-01-11T02:46:50;2.15;;;1.20;;
34373;SDS011;20637;55.770;37.592;2024-01-11T02:49:16;3.03;;;1.23;;
34373;SDS011;20637;55.770;37.592;2024-01-11T02:51:42;1.88;;;1.15;;
34373;SDS011;20637;55.770;37.592;2024-01-11T02:54:07;2.38;;;1.38;;
34373;SDS011;20637;55.770;37.592;2024-01-11T02:56:33;2.40;;;1.33;;
34373;SDS011;20637;55.770;37.592;2024-01-11T02:58:59;2.38;;;1.15;;
34373;SDS011;20637;55.770;37.592;2024-01-11T03:01:24;1.95;;;1.45;;
34373;SDS011;20637;55.770;37.592;2024-01-11T03:03:50;2.10;;;0.95;;
34373;SDS011;20637;55.770;37.592;2024-01-11T03:06:16;1.10;;;0.90;;
34373;SDS011;20637;55.770;37.592;2024-01-11T03:08:47;1.90;;;0.90;;
34373;SDS011;20637;55.770;37.592;2024-01-11T03:11:15;0.93;;;0.77;;
34373;SDS011;20637;55.770;37.592;2024-01-11T03:13:42;1.00;;;0.75;;
34373;SDS011;20637;55.770;37.592;2024-01-11T03:16:08;1.58;;;0.98;;
34373;SDS011;20637;55.770;37.592;2024-01-11T03:18:33;1.17;;;0.70;;
34373;SDS011;20637;55.770;37.592;2024-01-11T03:20:59;1.08;;;0.90;;
34373;SDS011;20637;55.770;37.592;2024-01-11T03:23:25;1.17;;;1.05;;
34373;SDS011;20637;55.770;37.592;2024-01-11T03:25:50;2.25;;;1.15;;
34373;SDS011;20637;55.770;37.592;2024-01-11T03:28:16;1.25;;;0.77;;
34373;SDS011;20637;55.770;37.592;2024-01-11T03:30:42;1.38;;;0.85;;
34373;SDS011;20637;55.770;37.592;2024-01-11T03:33:08;1.90;;;0.85;;
34373;SDS011;20637;55.770;37.592;2024-01-11T03:35:33;0.90;;;0.40;;
34373;SDS011;20637;55.770;37.592;2024-01-11T03:38:00;1.15;;;0.52;;
34373;SDS011;20637;55.770;37.592;2024-01-11T03:40:26;0.73;;;0.60;;
34373;SDS011;20637;55.770;37.592;2024-01-11T03:42:52;0.95;;;0.60;;
34373;SDS011;20637;55.770;37.592;2024-01-11T03:45:17;2.00;;;0.60;;
34373;SDS011;20637;55.770;37.592;2024-01-11T03:47:46;1.05;;;0.55;;
34373;SDS011;20637;55.770;37.592;2024-01-11T03:50:12;1.08;;;0.80;;
34373;SDS011;20637;55.770;37.592;2024-01-11T03:52:38;1.50;;;0.80;;
34373;SDS011;20637;55.770;37.592;2024-01-11T03:55:04;1.45;;;0.85;;
34373;SDS011;20637;55.770;37.592;2024-01-11T03:57:30;2.83;;;1.20;;
34373;SDS011;20637;55.770;37.592;2024-01-11T03:59:56;2.00;;;0.80;;
34373;SDS011;20637;55.770;37.592;2024-01-11T04:02:24;2.10;;;1.00;;
34373;SDS011;20637;55.770;37.592;2024-01-11T04:04:50;1.00;;;0.65;;
34373;SDS011;20637;55.770;37.592;2024-01-11T04:07:16;1.27;;;0.90;;
34373;SDS011;20637;55.770;37.592;2024-01-11T04:09:42;2.50;;;0.90;;
34373;SDS011;20637;55.770;37.592;2024-01-11T04:12:08;1.20;;;1.02;;
34373;SDS011;20637;55.770;37.592;2024-01-11T04:14:37;2.72;;;1.05;;
34373;SDS011;20637;55.770;37.592;2024-01-11T04:17:04;2.15;;;0.90;;
34373;SDS011;20637;55.770;37.592;2024-01-11T04:19:29;1.95;;;1.45;;
34373;SDS011;20637;55.770;37.592;2024-01-11T04:21:55;1.23;;;0.85;;
34373;SDS011;20637;55.770;37.592;2024-01-11T04:24:21;2.45;;;1.10;;
34373;SDS011;20637;55.770;37.592;2024-01-11T04:26:46;1.30;;;1.05;;
34373;SDS011;20637;55.770;37.592;2024-01-11T04:29:12;1.83;;;1.27;;
34373;SDS011;20637;55.770;37.592;2024-01-11T04:31:37;1.27;;;1.17;;
34373;SDS011;20637;55.770;37.592;2024-01-11T04:34:03;1.63;;;1.23;;
34373;SDS011;20637;55.770;37.592;2024-01-11T04:36:29;1.70;;;1.23;;
34373;SDS011;20637;55.770;37.592;2024-01-11T04:38:54;1.83;;;1.48;;
34373;SDS011;20637;55.770;37.592;2024-01-11T04:41:20;2.35;;;1.70;;
34373;SDS011;20637;55.770;37.592;2024-01-11T04:43:45;1.73;;;1.50;;
34373;SDS011;20637;55.770;37.592;2024-01-11T04:46:21;2.33;;;1.30;;
34373;SDS011;20637;55.770;37.592;2024-01-11T04:48:48;2.63;;;1.38;;
34373;SDS011;20637;55.770;37.592;2024-01-11T04:51:15;2.65;;;1.90;;
34373;SDS011;20637;55.770;37.592;2024-01-11T04:53:42;2.45;;;1.50;;
34373;SDS011;20637;55.770;37.592;2024-01-11T04:56:09;2.00;;;1.55;;
34373;SDS011;20637;55.770;37.592;2024-01-11T04:58:37;2.22;;;1.55;;
34373;SDS011;20637;55.770;37.592;2024-01-11T05:01:06;5.63;;;1.67;;
34373;SDS011;20637;55.770;37.592;2024-01-11T05:03:32;3.38;;;1.70;;
34373;SDS011;20637;55.770;37.592;2024-01-11T05:05:58;4.18;;;1.75;;
34373;SDS011;20637;55.770;37.592;2024-01-11T05:08:27;2.83;;;1.80;;
34373;SDS011;20637;55.770;37.592;2024-01-11T05:10:54;2.65;;;1.75;;
34373;SDS011;20637;55.770;37.592;2024-01-11T05:13:20;2.80;;;1.80;;
34373;SDS011;20637;55.770;37.592;2024-01-11T05:15:45;2.10;;;1.80;;
34373;SDS011;20637;55.770;37.592;2024-01-11T05:18:11;4.88;;;1.60;;
34373;SDS011;20637;55.770;37.592;2024-01-11T05:20:37;2.42;;;1.92;;
34373;SDS011;20637;55.770;37.592;2024-01-11T05:23:03;3.95;;;2.20;;
34373;SDS011;20637;55.770;37.592;2024-01-11T05:25:30;4.65;;;2.35;;
34373;SDS011;20637;55.770;37.592;2024-01-11T05:28:02;2.83;;;2.00;;
34373;SDS011;20637;55.770;37.592;2024-01-11T05:30:29;2.30;;;1.90;;
34373;SDS011;20637;55.770;37.592;2024-01-11T05:32:56;3.38;;;1.77;;
34373;SDS011;20637;55.770;37.592;2024-01-11T05:35:22;1.70;;;1.60;;
34373;SDS011;20637;55.770;37.592;2024-01-11T05:37:53;3.15;;;1.75;;
34373;SDS011;20637;55.770;37.592;2024-01-11T05:40:22;2.72;;;1.52;;
34373;SDS011;20637;55.770;37.592;2024-01-11T05:42:47;3.30;;;1.60;;
34373;SDS011;20637;55.770;37.592;2024-01-11T05:45:13;3.72;;;1.58;;
34373;SDS011;20637;55.770;37.592;2024-01-11T05:47:42;2.97;;;1.50;;
34373;SDS011;20637;55.770;37.592;2024-01-11T05:50:09;2.58;;;1.30;;
34373;SDS011;20637;55.770;37.592;2024-01-11T05:52:36;3.28;;;1.63;;
34373;SDS011;20637;55.770;37.592;2024-01-11T05:55:02;2.20;;;1.23;;
34373;SDS011;20637;55.770;37.592;2024-01-11T05:57:29;3.45;;;1.80;;
34373;SDS011;20637;55.770;37.592;2024-01-11T05:59:55;3.80;;;1.42;;
34373;SDS011;20637;55.770;37.592;2024-01-11T06:02:21;2.88;;;1.65;;
34373;SDS011;20637;55.770;37.592;2024-01-11T06:04:48;3.88;;;1.80;;
34373;SDS011;20637;55.770;37.592;2024-01-11T06:07:15;2.42;;;1.70;;
34373;SDS011;20637;55.770;37.592;2024-01-11T06:09:41;2.25;;;1.52;;
34373;SDS011;20637;55.770;37.592;2024-01-11T06:12:07;3.40;;;1.50;;
34373;SDS011;20637;55.770;37.592;2024-01-11T06:14:32;3.08;;;1.58;;
34373;SDS011;20637;55.770;37.592;2024-01-11T06:16:58;2.15;;;1.50;;
34373;SDS011;20637;55.770;37.592;2024-01-11T06:19:24;5.15;;;1.63;;
34373;SDS011;20637;55.770;37.592;2024-01-11T06:21:49;3.92;;;1.58;;
34373;SDS011;20637;55.770;37.592;2024-01-11T06:24:15;3.13;;;1.60;;
34373;SDS011;20637;55.770;37.592;2024-01-11T06:26:40;3.80;;;1.70;;
34373;SDS011;20637;55.770;37.592;2024-01-11T06:29:06;1.88;;;1.48;;
34373;SDS011;20637;55.770;37.592;2024-01-11T06:31:32;2.38;;;1.52;;
34373;SDS011;20637;55.770;37.592;2024-01-11T06:33:57;2.28;;;1.52;;
34373;SDS011;20637;55.770;37.592;2024-01-11T06:36:23;5.78;;;2.50;;
34373;SDS011;20637;55.770;37.592;2024-01-11T06:38:49;5.43;;;1.60;;
34373;SDS011;20637;55.770;37.592;2024-01-11T06:41:14;4.15;;;1.90;;
34373;SDS011;20637;55.770;37.592;2024-01-11T06:43:40;2.35;;;1.20;;
34373;SDS011;20637;55.770;37.592;2024-01-11T06:46:05;2.70;;;1.38;;
34373;SDS011;20637;55.770;37.592;2024-01-11T06:48:32;1.70;;;1.40;;
34373;SDS011;20637;55.770;37.592;2024-01-11T06:50:58;4.13;;;1.58;;
34373;SDS011;20637;55.770;37.592;2024-01-11T06:53:24;2.65;;;1.40;;
34373;SDS011;20637;55.770;37.592;2024-01-11T06:55:49;2.42;;;1.63;;
34373;SDS011;20637;55.770;37.592;2024-01-11T06:58:17;1.75;;;0.98;;
34373;SDS011;20637;55.770;37.592;2024-01-11T07:00:43;2.75;;;1.35;;
34373;SDS011;20637;55.770;37.592;2024-01-11T07:03:09;1.80;;;1.30;;
34373;SDS011;20637;55.770;37.592;2024-01-11T07:05:35;2.20;;;1.50;;
34373;SDS011;20637;55.770;37.592;2024-01-11T07:08:01;1.38;;;0.93;;
34373;SDS011;20637;55.770;37.592;2024-01-11T07:10:27;1.70;;;1.20;;
34373;SDS011;20637;55.770;37.592;2024-01-11T07:12:52;2.65;;;1.15;;
34373;SDS011;20637;55.770;37.592;2024-01-11T07:15:18;2.78;;;0.90;;
34373;SDS011;20637;55.770;37.592;2024-01-11T07:17:43;1.48;;;1.38;;
34373;SDS011;20637;55.770;37.592;2024-01-11T07:20:09;2.42;;;1.08;;
34373;SDS011;20637;55.770;37.592;2024-01-11T07:22:35;5.88;;;1.27;;
34373;SDS011;20637;55.770;37.592;2024-01-11T07:25:01;6.63;;;1.92;;
34373;SDS011;20637;55.770;37.592;2024-01-11T07:27:27;4.13;;;0.95;;
34373;SDS011;20637;55.770;37.592;2024-01-11T07:29:53;2.45;;;1.10;;
34373;SDS011;20637;55.770;37.592;2024-01-11T07:32:18;3.17;;;1.10;;
34373;SDS011;20637;55.770;37.592;2024-01-11T07:34:44;5.05;;;1.33;;
34373;SDS011;20637;55.770;37.592;2024-01-11T07:37:09;7.53;;;2.03;;
34373;SDS011;20637;55.770;37.592;2024-01-11T07:39:35;2.15;;;1.30;;
34373;SDS011;20637;55.770;37.592;2024-01-11T07:42:01;1.73;;;1.40;;
34373;SDS011;20637;55.770;37.592;2024-01-11T07:44:28;3.65;;;0.93;;
34373;SDS011;20637;55.770;37.592;2024-01-11T07:46:53;2.05;;;0.93;;
34373;SDS011;20637;55.770;37.592;2024-01-11T07:49:19;4.60;;;1.73;;
34373;SDS011;20637;55.770;37.592;2024-01-11T07:51:45;4.18;;;1.08;;
34373;SDS011;20637;55.770;37.592;2024-01-11T07:54:11;1.95;;;0.88;;
34373;SDS011;20637;55.770;37.592;2024-01-11T07:56:37;1.98;;;0.90;;
34373;SDS011;20637;55.770;37.592;2024-01-11T07:59:03;1.85;;;0.90;;
34373;SDS011;20637;55.770;37.592;2024-01-11T08:01:29;4.93;;;1.23;;
34373;SDS011;20637;55.770;37.592;2024-01-11T08:03:55;2.75;;;1.00;;
34373;SDS011;20637;55.770;37.592;2024-01-11T08:06:20;4.53;;;1.40;;
34373;SDS011;20637;55.770;37.592;2024-01-11T08:08:46;2.58;;;0.90;;
34373;SDS011;20637;55.770;37.592;2024-01-11T08:11:17;4.55;;;2.10;;
34373;SDS011;20637;55.770;37.592;2024-01-11T08:13:44;4.90;;;1.27;;
34373;SDS011;20637;55.770;37.592;2024-01-11T08:16:14;4.00;;;1.50;;
34373;SDS011;20637;55.770;37.592;2024-01-11T08:18:41;3.55;;;1.50;;
34373;SDS011;20637;55.770;37.592;2024-01-11T08:21:07;3.95;;;1.00;;
34373;SDS011;20637;55.770;37.592;2024-01-11T08:23:34;3.28;;;0.98;;
34373;SDS011;20637;55.770;37.592;2024-01-11T08:26:01;3.17;;;1.58;;
34373;SDS011;20637;55.770;37.592;2024-01-11T08:28:26;2.35;;;1.00;;
34373;SDS011;20637;55.770;37.592;2024-01-11T08:30:52;1.90;;;0.90;;
34373;SDS011;20637;55.770;37.592;2024-01-11T08:33:17;3.38;;;1.13;;
34373;SDS011;20637;55.770;37.592;2024-01-11T08:35:43;3.63;;;1.10;;
34373;SDS011;20637;55.770;37.592;2024-01-11T08:38:09;1.73;;;1.15;;
34373;SDS011;20637;55.770;37.592;2024-01-11T08:40:34;2.95;;;1.10;;
34373;SDS011;20637;55.770;37.592;2024-01-11T08:43:00;3.90;;;1.08;;
34373;SDS011;20637;55.770;37.592;2024-01-11T08:45:26;3.03;;;1.08;;
34373;SDS011;20637;55.770;37.592;2024-01-11T08:47:52;6.75;;;2.35;;
34373;SDS011;20637;55.770;37.592;2024-01-11T08:50:17;2.92;;;1.30;;
34373;SDS011;20637;55.770;37.592;2024-01-11T08:52:43;5.82;;;1.38;;
34373;SDS011;20637;55.770;37.592;2024-01-11T08:55:09;7.28;;;2.75;;
34373;SDS011;20637;55.770;37.592;2024-01-11T08:57:35;5.85;;;1.90;;
34373;SDS011;20637;55.770;37.592;2024-01-11T09:00:03;5.07;;;0.90;;
34373;SDS011;20637;55.770;37.592;2024-01-11T09:02:32;1.42;;;0.68;;
34373;SDS011;20637;55.770;37.592;2024-01-11T09:04:58;2.05;;;1.02;;
34373;SDS011;20637;55.770;37.592;2024-01-11T09:07:24;0.98;;;0.57;;
34373;SDS011;20637;55.770;37.592;2024-01-11T09:09:49;0.75;;;0.65;;
34373;SDS011;20637;55.770;37.592;2024-01-11T09:12:15;1.25;;;0.40;;
34373;SDS011;20637;55.770;37.592;2024-01-11T09:14:40;1.90;;;0.85;;
34373;SDS011;20637;55.770;37.592;2024-01-11T09:17:06;0.93;;;0.52;;
34373;SDS011;20637;55.770;37.592;2024-01-11T09:19:32;2.42;;;0.90;;
34373;SDS011;20637;55.770;37.592;2024-01-11T09:21:59;3.13;;;0.65;;
34373;SDS011;20637;55.770;37.592;2024-01-11T09:24:25;2.67;;;1.10;;
34373;SDS011;20637;55.770;37.592;2024-01-11T09:26:51;2.10;;;1.13;;
34373;SDS011;20637;55.770;37.592;2024-01-11T09:29:17;1.90;;;1.08;;
34373;SDS011;20637;55.770;37.592;2024-01-11T09:31:43;1.65;;;1.10;;
34373;SDS011;20637;55.770;37.592;2024-01-11T09:34:09;2.45;;;0.70;;
34373;SDS011;20637;55.770;37.592;2024-01-11T09:36:34;1.65;;;0.90;;
34373;SDS011;20637;55.770;37.592;2024-01-11T09:39:04;2.40;;;1.10;;
34373;SDS011;20637;55.770;37.592;2024-01-11T09:41:31;2.25;;;0.63;;
34373;SDS011;20637;55.770;37.592;2024-01-11T09:43:57;1.80;;;0.90;;
34373;SDS011;20637;55.770;37.592;2024-01-11T09:46:26;1.75;;;1.00;;
34373;SDS011;20637;55.770;37.592;2024-01-11T09:48:53;3.75;;;0.90;;
34373;SDS011;20637;55.770;37.592;2024-01-11T09:51:20;2.28;;;1.00;;
34373;SDS011;20637;55.770;37.592;2024-01-11T09:53:46;2.05;;;0.70;;
34373;SDS011;20637;55.770;37.592;2024-01-11T09:56:16;2.33;;;1.10;;
34373;SDS011;20637;55.770;37.592;2024-01-11T09:58:43;0.93;;;0.80;;
34373;SDS011;20637;55.770;37.592;2024-01-11T10:01:13;1.63;;;0.80;;
34373;SDS011;20637;55.770;37.592;2024-01-11T10:03:40;1.42;;;1.00;;
34373;SDS011;20637;55.770;37.592;2024-01-11T10:06:07;1.52;;;0.98;;
34373;SDS011;20637;55.770;37.592;2024-01-11T10:08:35;2.50;;;0.80;;
34373;SDS011;20637;55.770;37.592;2024-01-11T10:11:01;2.53;;;1.30;;
34373;SDS011;20637;55.770;37.592;2024-01-11T10:13:28;2.30;;;0.93;;
34373;SDS011;20637;55.770;37.592;2024-01-11T10:16:06;4.13;;;1.55;;
34373;SDS011;20637;55.770;37.592;2024-01-11T10:18:33;2.33;;;1.20;;
34373;SDS011;20637;55.770;37.592;2024-01-11T10:20:59;2.58;;;1.10;;
34373;SDS011;20637;55.770;37.592;2024-01-11T10:23:25;2.83;;;1.38;;
34373;SDS011;20637;55.770;37.592;2024-01-11T10:25:50;1.95;;;0.90;;
34373;SDS011;20637;55.770;37.592;2024-01-11T10:28:16;4.07;;;1.73;;
34373;SDS011;20637;55.770;37.592;2024-01-11T10:30:45;2.40;;;1.23;;
34373;SDS011;20637;55.770;37.592;2024-01-11T10:33:11;1.88;;;1.20;;
34373;SDS011;20637;55.770;37.592;2024-01-11T10:35:37;1.15;;;0.95;;
34373;SDS011;20637;55.770;37.592;2024-01-11T10:38:04;1.20;;;0.85;;
34373;SDS011;20637;55.770;37.592;2024-01-11T10:40:35;1.77;;;0.90;;
34373;SDS011;20637;55.770;37.592;2024-01-11T10:43:01;1.00;;;0.90;;
34373;SDS011;20637;55.770;37.592;2024-01-11T10:45:28;1.40;;;1.13;;
34373;SDS011;20637;55.770;37.592;2024-01-11T10:48:06;1.55;;;1.13;;
34373;SDS011;20637;55.770;37.592;2024-01-11T10:50:37;0.98;;;0.88;;
34373;SDS011;20637;55.770;37.592;2024-01-11T10:55:52;1.88;;;1.13;;
34373;SDS011;20637;55.770;37.592;2024-01-11T10:58:21;1.58;;;0.90;;
34373;SDS011;20637;55.770;37.592;2024-01-11T11:00:48;1.88;;;1.08;;
34373;SDS011;20637;55.770;37.592;2024-01-11T11:03:17;1.10;;;0.82;;
34373;SDS011;20637;55.770;37.592;2024-01-11T11:05:44;1.75;;;0.98;;
34373;SDS011;20637;55.770;37.592;2024-01-11T11:08:13;1.67;;;0.90;;
34373;SDS011;20637;55.770;37.592;2024-01-11T11:10:39;1.17;;;0.57;;
34373;SDS011;20637;55.770;37.592;2024-01-11T11:13:08;1.40;;;0.75;;
34373;SDS011;20637;55.770;37.592;2024-01-11T11:15:35;2.15;;;0.80;;
34373;SDS011;20637;55.770;37.592;2024-01-11T11:18:04;1.15;;;0.77;;
34373;SDS011;20637;55.770;37.592;2024-01-11T11:20:31;1.40;;;0.93;;
34373;SDS011;20637;55.770;37.592;2024-01-11T11:23:04;1.92;;;0.60;;
34373;SDS011;20637;55.770;37.592;2024-01-11T11:25:31;1.08;;;0.75;;
34373;SDS011;20637;55.770;37.592;2024-01-11T11:27:59;1.33;;;0.70;;
34373;SDS011;20637;55.770;37.592;2024-01-11T11:30:48;1.58;;;1.00;;
34373;SDS011;20637;55.770;37.592;2024-01-11T11:33:22;3.50;;;0.68;;
34373;SDS011;20637;55.770;37.592;2024-01-11T11:35:52;2.53;;;0.60;;
34373;SDS011;20637;55.770;37.592;2024-01-11T11:38:20;4.28;;;1.05;;
34373;SDS011;20637;55.770;37.592;2024-01-11T11:40:47;1.23;;;0.57;;
34373;SDS011;20637;55.770;37.592;2024-01-11T11:43:17;1.73;;;0.90;;
34373;SDS011;20637;55.770;37.592;2024-01-11T11:45:44;2.45;;;1.08;;
34373;SDS011;20637;55.770;37.592;2024-01-11T11:51:12;1.15;;;0.65;;
34373;SDS011;20637;55.770;37.592;2024-01-11T11:53:40;1.65;;;1.17;;
34373;SDS011;20637;55.770;37.592;2024-01-11T11:56:08;1.23;;;0.80;;
34373;SDS011;20637;55.770;37.592;2024-01-11T11:58:37;2.97;;;1.10;;
34373;SDS011;20637;55.770;37.592;2024-01-11T12:01:06;2.63;;;1.35;;
34373;SDS011;20637;55.770;37.592;2024-01-11T12:03:33;2.60;;;1.60;;
34373;SDS011;20637;55.770;37.592;2024-01-11T12:06:04;2.17;;;1.17;;
34373;SDS011;20637;55.770;37.592;2024-01-11T12:08:31;1.85;;;0.82;;
34373;SDS011;20637;55.770;37.592;2024-01-11T12:10:57;2.10;;;1.02;;
34373;SDS011;20637;55.770;37.592;2024-01-11T12:13:23;2.13;;;1.30;;
34373;SDS011;20637;55.770;37.592;2024-01-11T12:15:49;1.63;;;1.13;;
34373;SDS011;20637;55.770;37.592;2024-01-11T12:18:15;1.65;;;0.82;;
34373;SDS011;20637;55.770;37.592;2024-01-11T12:20:41;3.13;;;1.55;;
34373;SDS011;20637;55.770;37.592;2024-01-11T12:23:07;2.97;;;1.27;;
34373;SDS011;20637;55.770;37.592;2024-01-11T12:25:32;2.72;;;0.95;;
34373;SDS011;20637;55.770;37.592;2024-01-11T12:27:58;3.28;;;1.50;;
34373;SDS011;20637;55.770;37.592;2024-01-11T12:30:27;1.80;;;1.02;;
34373;SDS011;20637;55.770;37.592;2024-01-11T12:32:53;2.33;;;1.33;;
34373;SDS011;20637;55.770;37.592;2024-01-11T12:35:20;3.13;;;1.30;;
34373;SDS011;20637;55.770;37.592;2024-01-11T12:37:59;2.80;;;1.35;;
34373;SDS011;20637;55.770;37.592;2024-01-11T12:40:34;2.88;;;1.90;;
34373;SDS011;20637;55.770;37.592;2024-01-11T12:43:03;1.48;;;0.95;;
34373;SDS011;20637;55.770;37.592;2024-01-11T12:45:33;1.77;;;1.20;;
34373;SDS011;20637;55.770;37.592;2024-01-11T12:48:00;3.10;;;1.60;;
34373;SDS011;20637;55.770;37.592;2024-01-11T12:50:26;1.73;;;1.13;;
34373;SDS011;20637;55.770;37.592;2024-01-11T12:55:35;3.15;;;1.33;;
34373;SDS011;20637;55.770;37.592;2024-01-11T12:58:07;3.53;;;1.70;;
34373;SDS011;20637;55.770;37.592;2024-01-11T13:00:35;2.70;;;1.25;;
34373;SDS011;20637;55.770;37.592;2024-01-11T13:03:02;2.88;;;1.08;;
34373;SDS011;20637;55.770;37.592;2024-01-11T13:05:29;1.85;;;1.10;;
34373;SDS011;20637;55.770;37.592;2024-01-11T13:10:27;5.63;;;1.48;;
34373;SDS011;20637;55.770;37.592;2024-01-11T13:12:53;2.28;;;1.10;;
34373;SDS011;20637;55.770;37.592;2024-01-11T13:15:20;1.60;;;1.08;;
34373;SDS011;20637;55.770;37.592;2024-01-11T13:17:45;2.80;;;1.30;;
34373;SDS011;20637;55.770;37.592;2024-01-11T13:20:11;1.80;;;1.20;;
34373;SDS011;20637;55.770;37.592;2024-01-11T13:22:36;2.00;;;1.20;;
34373;SDS011;20637;55.770;37.592;2024-01-11T13:25:02;1.98;;;1.05;;
34373;SDS011;20637;55.770;37.592;2024-01-11T13:27:30;2.38;;;1.30;;
34373;SDS011;20637;55.770;37.592;2024-01-11T13:29:56;2.55;;;1.13;;
34373;SDS011;20637;55.770;37.592;2024-01-11T13:32:23;2.88;;;1.38;;
34373;SDS011;20637;55.770;37.592;2024-01-11T13:34:49;3.10;;;1.40;;
34373;SDS011;20637;55.770;37.592;2024-01-11T13:37:18;2.20;;;1.10;;
34373;SDS011;20637;55.770;37.592;2024-01-11T13:39:45;4.20;;;1.10;;
34373;SDS011;20637;55.770;37.592;2024-01-11T13:42:11;3.15;;;1.00;;
34373;SDS011;20637;55.770;37.592;2024-01-11T13:44:38;2.35;;;1.20;;
34373;SDS011;20637;55.770;37.592;2024-01-11T13:47:04;5.15;;;1.88;;
34373;SDS011;20637;55.770;37.592;2024-01-11T13:49:29;1.95;;;1.05;;
34373;SDS011;20637;55.770;37.592;2024-01-11T13:51:56;2.25;;;1.27;;
34373;SDS011;20637;55.770;37.592;2024-01-11T13:54:22;2.33;;;1.10;;
34373;SDS011;20637;55.770;37.592;2024-01-11T13:56:48;1.90;;;1.10;;
34373;SDS011;20637;55.770;37.592;2024-01-11T13:59:14;2.10;;;1.35;;
34373;SDS011;20637;55.770;37.592;2024-01-11T14:01:40;2.30;;;1.17;;
34373;SDS011;20637;55.770;37.592;2024-01-11T14:04:06;2.90;;;1.25;;
34373;SDS011;20637;55.770;37.592;2024-01-11T14:06:32;2.38;;;1.00;;
34373;SDS011;20637;55.770;37.592;2024-01-11T14:08:58;3.38;;;1.30;;
34373;SDS011;20637;55.770;37.592;2024-01-11T14:11:23;2.25;;;1.40;;
34373;SDS011;20637;55.770;37.592;2024-01-11T14:13:49;4.15;;;1.58;;
34373;SDS011;20637;55.770;37.592;2024-01-11T14:16:14;1.98;;;1.02;;
34373;SDS011;20637;55.770;37.592;2024-01-11T14:18:42;3.42;;;1.73;;
34373;SDS011;20637;55.770;37.592;2024-01-11T14:21:08;2.75;;;1.25;;
34373;SDS011;20637;55.770;37.592;2024-01-11T14:23:37;3.25;;;1.10;;
34373;SDS011;20637;55.770;37.592;2024-01-11T14:26:03;3.30;;;1.35;;
34373;SDS011;20637;55.770;37.592;2024-01-11T14:28:29;1.38;;;0.73;;
34373;SDS011;20637;55.770;37.592;2024-01-11T14:30:54;2.17;;;1.10;;
34373;SDS011;20637;55.770;37.592;2024-01-11T14:33:20;2.17;;;1.50;;
34373;SDS011;20637;55.770;37.592;2024-01-11T14:35:46;4.13;;;1.77;;
34373;SDS011;20637;55.770;37.592;2024-01-11T14:38:12;4.55;;;1.60;;
34373;SDS011;20637;55.770;37.592;2024-01-11T14:40:37;3.75;;;1.52;;